Terminal Aerodrome Forecast
Issued by NWS Tulsa, OK

Home | Current Version | Previous Version | Text Only | Print | Product List | Glossary Off
Versions: 1 2 3 4 5 6 7 8 9 10 11 12 13 14 15

000
FTUS44 KTSA 171921 AAA
TAFTUL
TAF AMD
KTUL 171921Z 1719/1818 18024G33KT P6SM SCT035 BKN150
     FM172300 22016G25KT P6SM SCT150
     FM181100 29013G22KT P6SM SCT250
     FM181400 34026G38KT P6SM BKN030=

USA.gov is the U.S. government's official web portal to all federal, state and local government web resources and services.